METAR AND TAF INFORMATION
METAR FOR GMME
ADDS - METARS form results

(2121 UTC 03 August 2021)
Data provider http://aviationweather.gov/metar/data/
 
METAR text: GMME 032100Z 00000KT 8000 FEW016 21/20 Q1015 NOSIG
Conditions at: GMME (RABAT/SALE (RMAF, MA) observed 2100 UTC 03 August 2021
Temperature: 21.0°C (70°F)
Dewpoint: 20.0°C (68°F) [RH = 94%]
Pressure (altimeter): 29.97 inches Hg (1015.0 mb)
Winds: calm
Visibility: 5 miles ( 8 km)
Ceiling: at least 12,000 feet AGL
Clouds: few clouds at 1600 feet AGL
Weather: no significant weather observed at this time

METAR text: GMME 032030Z 30003KT 270V010 8000 FEW016 22/20 Q1015 NOSIG
Conditions at: GMME (RABAT/SALE (RMAF, MA) observed 2030 UTC 03 August 2021
Temperature: 22.0°C (72°F)
Dewpoint: 20.0°C (68°F) [RH = 88%]
Pressure (altimeter): 29.97 inches Hg (1015.0 mb)
Winds: from the WNW (300 degrees) at 3 MPH (3 knots; 1.5 m/s)
Visibility: 5 miles ( 8 km)
Ceiling: at least 12,000 feet AGL
Clouds: few clouds at 1600 feet AGL
Weather: no significant weather observed at this time

Forecast for: GMME (RABAT/SALE (RMAF, MA)
Text: TAF GMME 031700Z 0318/0424 34010KT 8000 SCT016
Forecast period: 1800 UTC 03 August 2021 to 0000 UTC 05 August 2021
Forecast type: FROM: standard forecast or significant change
Winds: from the NNW (340 degrees) at 12 MPH (10 knots; 5.1 m/s)
Visibility: 5 miles (8 km)
Ceiling: at least 12,000 feet AGL
Clouds: scattered clouds at 1600 feet AGL
Weather: no significant weather forecast for this period
Text: TEMPO 0322/0406 24004KT BKN013
Forecast period: 2200 UTC 03 August 2021 to 0600 UTC 04 August 2021
Forecast type: TEMPORARY: The following changes expected for less than half the time period
Winds: from the WSW (240 degrees) at 5 MPH (4 knots; 2.1 m/s)
Visibility: missing
Ceiling: 1300 feet AGL
Clouds: broken clouds at 1300 feet AGL
Weather: no significant weather forecast for this period

 AIRPORT MAP

 RUNWAY INFORMATION
Runway 04 Runway length 11483 ft Runway width 148 ft
Runway elevation 273 ft Runway displaced threshold 0 ft Runway heading 31
Runway 22 Runway length 11483 ft Runway width 148 ft
Runway elevation 240 ft Runway displaced threshold 0 ft Runway heading 211

 AIRPORT FREQUENCIES
Type APP Name APP Frequency 118.9 MHZ
Type TWR Name TWR Frequency 118.3 MHZ

 AIRPORT NEAR NAVIGATION AIDS
Type VOR-DME Name Rabat Frequency 116500 KHZ
Type NDB Name Rabat Frequency 332 KHZ





Powered by Virtual Airlines Manager

Maps by Rafael Santos